createdAt,value
2022-10-04T00:02:34.690Z,3.60
2022-10-04T00:12:41.120Z,3.45
2022-10-04T00:23:19.990Z,3.40
2022-10-04T00:33:37.766Z,3.92
2022-10-04T00:43:43.752Z,3.63
2022-10-04T00:53:57.324Z,3.80
2022-10-04T01:04:03.319Z,3.55
2022-10-04T01:14:14.548Z,3.78
2022-10-04T01:24:22.122Z,3.85
2022-10-04T01:34:26.843Z,3.65
2022-10-04T01:44:37.691Z,3.58
2022-10-04T01:54:44.462Z,3.83
2022-10-04T02:04:53.681Z,4.97
2022-10-04T02:14:58.140Z,5.30
2022-10-04T02:25:02.419Z,5.35
2022-10-04T02:35:07.030Z,5.10
2022-10-04T02:45:20.306Z,4.70
2022-10-04T02:55:26.608Z,4.63
2022-10-04T03:05:30.690Z,5.47
2022-10-04T03:15:33.613Z,5.50
2022-10-04T03:25:46.612Z,4.57
2022-10-04T03:35:52.501Z,5.57
2022-10-04T03:45:58.065Z,5.60
2022-10-04T03:56:04.526Z,6.50
2022-10-04T04:06:16.169Z,5.45
2022-10-04T04:16:21.349Z,6.05
2022-10-04T04:26:31.341Z,6.10
2022-10-04T04:36:41.630Z,6.50
2022-10-04T04:46:46.121Z,6.95
2022-10-04T04:56:50.209Z,6.45
2022-10-04T05:07:18.164Z,6.55
2022-10-04T05:17:24.252Z,6.40
2022-10-04T05:27:31.644Z,6.13
2022-10-04T05:37:53.310Z,6.40
2022-10-04T05:47:59.011Z,6.32
2022-10-04T05:58:31.809Z,6.90
2022-10-04T06:08:50.550Z,6.63
2022-10-04T06:19:13.192Z,6.50
2022-10-04T06:29:21.924Z,6.65
2022-10-04T06:40:02.235Z,6.97
2022-10-04T06:50:21.029Z,8.02
2022-10-04T07:00:26.086Z,7.78
2022-10-04T07:10:35.603Z,7.82
2022-10-04T07:20:39.090Z,7.37
2022-10-04T07:30:49.619Z,8.23
2022-10-04T07:41:07.409Z,6.65
2022-10-04T07:51:21.008Z,6.07
2022-10-04T08:01:31.363Z,5.85
2022-10-04T08:11:43.579Z,6.00
2022-10-04T08:21:55.783Z,5.68
2022-10-04T08:32:06.326Z,5.00
2022-10-04T08:42:41.756Z,5.07
2022-10-04T08:53:16.452Z,4.55
2022-10-04T09:04:06.625Z,3.83
2022-10-04T09:14:36.415Z,3.20
2022-10-04T09:35:25.142Z,4.20
2022-10-04T09:45:38.059Z,3.10
2022-10-04T09:56:04.241Z,3.50
2022-10-04T10:06:41.904Z,2.97
2022-10-04T10:17:00.890Z,3.28
2022-10-04T10:27:49.015Z,3.63
2022-10-04T10:38:06.681Z,3.08
2022-10-04T10:48:18.855Z,2.33
2022-10-04T10:59:01.681Z,2.40
2022-10-04T11:09:32.802Z,2.30
2022-10-04T11:20:11.140Z,2.00
2022-10-04T11:30:24.690Z,1.70
2022-10-04T11:40:40.205Z,2.40
2022-10-04T11:51:03.144Z,2.05
2022-10-04T12:01:40.739Z,2.22
2022-10-04T12:12:31.395Z,1.70
2022-10-04T12:23:03.363Z,2.00
2022-10-04T12:33:15.556Z,2.08
2022-10-04T12:43:28.083Z,2.40
2022-10-04T12:53:46.046Z,2.28
2022-10-04T13:04:06.578Z,2.35
2022-10-04T13:14:45.054Z,2.67
2022-10-04T13:25:02.046Z,2.00
2022-10-04T13:35:14.617Z,1.75
2022-10-04T13:45:39.192Z,1.90
2022-10-04T13:56:06.842Z,2.25
2022-10-04T14:06:34.747Z,2.00
2022-10-04T14:17:11.688Z,2.13
2022-10-04T14:27:42.905Z,2.08
2022-10-04T14:38:36.079Z,1.92
2022-10-04T14:49:01.679Z,2.40
2022-10-04T14:59:22.518Z,2.47
2022-10-04T15:09:51.485Z,2.15
2022-10-04T15:20:05.038Z,2.20
2022-10-04T15:30:20.010Z,2.30
2022-10-04T15:40:31.737Z,2.67
2022-10-04T15:50:42.382Z,3.80
2022-10-04T16:00:57.341Z,3.20
2022-10-04T16:11:12.798Z,2.97
2022-10-04T16:21:29.548Z,3.38
2022-10-04T16:31:53.274Z,3.28
2022-10-04T16:42:00.286Z,3.30
2022-10-04T16:52:27.660Z,3.10
2022-10-04T17:03:01.102Z,3.40
2022-10-04T17:13:21.073Z,8.63
2022-10-04T17:23:53.398Z,6.00
2022-10-04T17:34:08.002Z,6.10
2022-10-04T17:44:34.214Z,6.05
2022-10-04T17:55:03.729Z,7.40
2022-10-04T18:05:24.126Z,5.40
2022-10-04T18:15:31.206Z,6.03
2022-10-04T18:25:34.331Z,5.10
2022-10-04T18:35:52.208Z,5.32
2022-10-04T18:46:04.427Z,5.13
2022-10-04T18:56:09.954Z,7.60
2022-10-04T19:06:20.507Z,11.07
2022-10-04T19:16:38.342Z,12.13
2022-10-04T19:26:44.542Z,5.35
2022-10-04T19:36:55.980Z,3.90
2022-10-04T19:47:04.493Z,3.50
2022-10-04T19:57:14.874Z,4.03
2022-10-04T20:07:23.594Z,3.85
2022-10-04T20:17:34.748Z,4.13
2022-10-04T20:28:03.587Z,4.13
2022-10-04T20:38:32.111Z,3.70
2022-10-04T20:48:35.523Z,3.67
2022-10-04T20:58:40.579Z,3.97
2022-10-04T21:08:43.321Z,3.83
2022-10-04T21:18:47.356Z,3.60
2022-10-04T21:28:54.015Z,3.67
2022-10-04T21:38:58.005Z,3.70
2022-10-04T21:49:00.622Z,3.50
2022-10-04T21:59:04.862Z,4.30
2022-10-04T22:09:07.529Z,3.80
2022-10-04T22:19:11.703Z,3.67
2022-10-04T22:29:15.596Z,3.83
2022-10-04T22:39:21.226Z,4.03
2022-10-04T22:49:26.777Z,3.88
2022-10-04T22:59:36.002Z,3.80
2022-10-04T23:09:38.657Z,3.77
2022-10-04T23:19:42.786Z,3.67
2022-10-04T23:29:46.580Z,3.55
2022-10-04T23:39:51.008Z,4.00
2022-10-04T23:49:54.740Z,3.78
